Flight Track Log - Related Links

Times and Time Zones

All times are in EDT time to prevent confusion due to time zone crossing. See the AWE1454 flight status page for this flight to view local times or setup timezone preferences in your user account.

Time Position Orientation Groundspeed Altitude Reporting Facility
EDT Latitude Longitude Course Direction KTS MPH feet Rate Location/Type
Fri 04:28:07 PM 39.8833 -75.2167 37° Northeast 148 170 600  Level Philadelphia TRACON
Fri 04:28:43 PM 39.8667 -75.1833 123° Southeast 162 186 1,800 1,780 Climbing Philadelphia TRACON
Fri 04:29:38 PM 39.8667 -75.1167 90° East 220 253 3,300 2,700 Climbing Philadelphia TRACON
Fri 04:30:00 PM 39.8119 -74.8427 105° East  Level FlightAware Approximate
Fri 04:31:00 PM 39.7856 -74.7114 105° East  Level FlightAware Approximate
Fri 04:31:23 PM 39.8364 -74.9747 105° East 277 319 9,000  Level New York Center
Fri 04:32:00 PM 39.8588 -74.6246 37° Northeast  Level FlightAware Approximate
Fri 04:32:23 PM 39.8192 -74.8736 102° East 283 326 11,100  Level New York Center
Fri 04:33:00 PM 39.9449 -74.5551 37° Northeast  Level FlightAware Approximate
Fri 04:33:23 PM 39.8019 -74.7672 102° East 304 350 13,000  Level New York Center
Fri 04:34:22 PM 39.8408 -74.6639 64° Northeast 310 357 15,700 2,723 Climbing New York Center
Fri 04:35:22 PM 39.9331 -74.5825 34° Northeast 322 371 18,400 2,231 Climbing New York Center
Fri 04:36:23 PM 40.0042 -74.5158 36° Northeast 322 371 20,200 2,777 Climbing New York Center
Fri 04:37:23 PM 40.0881 -74.4281 39° Northeast 347 399 24,000 2,847 Climbing New York Center
Fri 04:38:21 PM 40.1614 -74.3533 38° Northeast 341 392 25,800 1,780 Climbing New York Center
Fri 04:39:21 PM 40.2386 -74.2758 37° Northeast 336 387 27,500 1,587 Climbing New York Center
Fri 04:40:22 PM 40.3239 -74.2092 31° Northeast 336 387 29,000 750 Climbing New York Center
Fri 04:41:21 PM 40.4094 -74.1372 33° Northeast 346 398 29,000  Level New York Center
Fri 04:42:21 PM 40.4947 -74.0733 30° Northeast 352 405 29,000  Level New York Center
Fri 04:43:23 PM 40.5778 -74.0089 31° Northeast 352 405 29,000  Level New York Center
Fri 04:45:08 PM 40.7236 -73.8997 30° Northeast 353 406 29,000  Level Boston Center
Fri 04:46:08 PM 40.8058 -73.8358 30° Northeast 347 399 29,000  Level Boston Center
Fri 04:47:08 PM 40.8961 -73.7856 23° Northeast 341 392 29,000  Level Boston Center
Fri 04:48:08 PM 40.9939 -73.7931 357° North 336 387 29,000  Level Boston Center
Fri 04:49:08 PM 41.0917 -73.7978 358° North 341 392 29,000  Level Boston Center
Fri 04:50:08 PM 41.1875 -73.8028 358° North 341 392 29,000  Level Boston Center
Fri 04:51:08 PM 41.2875 -73.8075 358° North 346 398 29,000  Level Boston Center
Fri 04:52:08 PM 41.3833 -73.8122 358° North 346 398 29,000  Level Boston Center
Fri 04:53:08 PM 41.4833 -73.8144 359° North 346 398 29,000  Level Boston Center
Fri 04:54:08 PM 41.5792 -73.8194 358° North 346 398 29,000  Level Boston Center
Fri 04:55:08 PM 41.6772 -73.8242 358° North 346 398 29,000  Level Boston Center
Fri 04:56:08 PM 41.7750 -73.8208 North 346 398 29,000  Level Boston Center
Fri 04:57:08 PM 41.8792 -73.8231 359° North 337 388 29,000  Level Boston Center
Fri 04:58:08 PM 41.9772 -73.8225 360° North 337 388 29,000  Level Boston Center
Fri 04:59:08 PM 42.0753 -73.8189 North 347 399 29,000 -500 Level Boston Center
Fri 05:00:08 PM 42.1817 -73.8158 North 358 412 28,000 -1,050 Descending Boston Center
Fri 05:01:08 PM 42.2842 -73.7842 13° North 371 427 26,900 -1,100 Descending Boston Center
Fri 05:02:08 PM 42.3458 -73.6675 54° Northeast 352 405 25,800 -1,100 Descending Boston Center
Fri 05:03:08 PM 42.3889 -73.5336 66° East 360 414 24,700 -1,100 Descending Boston Center
Fri 05:04:08 PM 42.4317 -73.4078 65° Northeast 360 414 23,600 -1,050 Descending Boston Center
Fri 05:05:08 PM 42.4722 -73.2844 66° East 383 441 22,600 -1,050 Descending Boston Center
Fri 05:06:08 PM 42.5128 -73.1583 66° East 378 435 21,500 -1,100 Descending Boston Center
Fri 05:07:08 PM 42.5508 -73.0461 65° Northeast 362 417 20,400 -1,100 Descending Boston Center
Fri 05:08:08 PM 42.5911 -72.9111 68° East 356 410 19,300 -1,250 Descending Boston Center
Fri 05:09:08 PM 42.6333 -72.7986 63° Northeast 345 397 17,900 -1,250 Descending Boston Center
Fri 05:10:08 PM 42.6711 -72.6800 67° East 338 389 16,800 -1,150 Descending Boston Center
Fri 05:11:08 PM 42.7067 -72.5672 67° East 338 389 15,600 -1,250 Descending Boston Center
Fri 05:12:08 PM 42.7442 -72.4514 66° East 338 389 14,300 -1,250 Descending Boston Center
Fri 05:13:08 PM 42.7797 -72.3383 67° East 338 389 13,100 -1,250 Descending Boston Center
Fri 05:14:08 PM 42.8025 -72.2081 77° East 326 375 11,800 -1,200 Descending Boston Center
Fri 05:15:08 PM 42.8083 -72.1033 86° East 312 359 10,700 -1,200 Descending Boston Center
Fri 05:16:08 PM 42.8308 -71.9758 76° East 312 359 9,400 -850 Descending Boston Center
Fri 05:17:08 PM 42.8556 -71.9047 65° Northeast 301 346 9,000 -182 Descending Boston Center
Fri 05:18:20 PM 42.9281 -71.7936 48° Northeast 295 339 9,000 -591 Level Boston Center
Fri 05:19:20 PM 43.0003 -71.7078 41° Northeast 289 333 7,700 -1,550 Descending Boston Center
Fri 05:20:20 PM 43.0564 -71.6614 31° Northeast 267 307 5,900 -1,400 Descending Boston Center
Fri 05:21:20 PM 43.0764 -71.5731 73° East 213 245 4,900 -1,350 Descending Boston Center
Fri 05:22:20 PM 43.0614 -71.5164 110° East 176 203 3,200 -1,700 Descending Boston Center

Login

Don't have an account? Register now (free) for customized features, flight alerts, and more!